createdAt,value
2018-07-14T00:01:44.535Z,69.72
2018-07-14T00:04:12.629Z,69.86
2018-07-14T00:06:40.687Z,70.97
2018-07-14T00:09:08.764Z,70.46
2018-07-14T00:11:36.861Z,71.28
2018-07-14T00:14:04.998Z,71.33
2018-07-14T00:16:33.070Z,71.30
2018-07-14T00:19:01.148Z,71.46
2018-07-14T00:21:29.223Z,71.11
2018-07-14T00:23:57.323Z,72.03
2018-07-14T00:26:25.389Z,72.21
2018-07-14T00:50:11.303Z,71.98
2018-07-14T00:52:39.990Z,72.33
2018-07-14T00:55:08.164Z,71.62
2018-07-14T00:57:36.317Z,72.41
2018-07-14T01:00:04.622Z,72.58
2018-07-14T01:08:39.114Z,71.63
2018-07-14T04:26:07.204Z,73.97
2018-07-14T04:28:35.378Z,72.87
2018-07-14T04:31:03.500Z,71.79
2018-07-14T04:33:31.649Z,71.03
2018-07-14T04:35:59.691Z,71.33
2018-07-14T04:38:28.288Z,71.28
2018-07-14T04:40:56.393Z,70.72
2018-07-14T04:43:24.497Z,71.07
2018-07-14T04:45:52.577Z,70.29
2018-07-14T04:48:20.631Z,70.63
2018-07-14T04:50:49.308Z,70.10
2018-07-14T04:53:17.644Z,69.08
2018-07-14T04:58:48.401Z,69.33
2018-07-14T05:01:16.464Z,69.62
2018-07-14T05:03:44.638Z,70.30
2018-07-14T05:24:28.590Z,71.69
2018-07-14T05:26:56.757Z,69.72
2018-07-14T05:29:24.819Z,67.01
2018-07-14T05:31:52.883Z,63.69
2018-07-14T05:34:20.960Z,62.97
2018-07-14T05:36:49.024Z,62.92
2018-07-14T05:39:17.120Z,59.70
2018-07-14T05:41:45.222Z,55.48
2018-07-14T05:44:13.297Z,50.76
2018-07-14T05:46:41.401Z,47.47
2018-07-14T05:49:09.472Z,46.08
2018-07-14T05:51:37.552Z,43.59
2018-07-14T05:54:05.708Z,41.89
2018-07-14T05:56:33.784Z,40.16
2018-07-14T05:59:01.916Z,38.76
2018-07-14T06:01:30.639Z,38.65
2018-07-14T06:03:58.721Z,38.28
2018-07-14T06:06:26.785Z,37.05
2018-07-14T06:08:54.844Z,36.09
2018-07-14T06:11:22.973Z,36.18
2018-07-14T06:13:51.034Z,40.96
2018-07-14T06:16:19.098Z,42.22
2018-07-14T06:18:47.164Z,42.84
2018-07-14T06:21:15.253Z,42.69
2018-07-14T06:23:43.307Z,43.06
2018-07-14T06:26:11.393Z,44.58
2018-07-14T06:28:39.457Z,50.60
2018-07-14T06:31:07.534Z,51.71
2018-07-14T06:33:35.605Z,52.77
2018-07-14T06:36:03.707Z,55.96
2018-07-14T06:38:31.827Z,55.30
2018-07-14T06:40:59.877Z,57.25
2018-07-14T06:43:27.959Z,57.43
2018-07-14T06:45:56.171Z,53.86
2018-07-14T06:48:24.248Z,52.73
2018-07-14T06:50:52.322Z,53.58
2018-07-14T06:53:20.392Z,51.59
2018-07-14T06:55:48.456Z,51.79
2018-07-14T06:58:16.520Z,53.23
2018-07-14T07:00:44.620Z,54.44
2018-07-14T07:03:12.691Z,52.95
2018-07-14T07:05:41.049Z,53.03
2018-07-14T07:08:09.116Z,52.79
2018-07-14T07:10:37.200Z,53.02
2018-07-14T07:13:05.566Z,52.79
2018-07-14T07:15:33.627Z,53.04
2018-07-14T07:18:01.708Z,53.75
2018-07-14T07:20:29.775Z,53.96
2018-07-14T07:22:57.880Z,54.88
2018-07-14T07:25:25.941Z,55.15
2018-07-14T07:27:54.020Z,54.93
2018-07-14T07:30:22.092Z,54.93
2018-07-14T07:32:50.172Z,55.08
2018-07-14T07:35:18.278Z,55.34
2018-07-14T07:37:46.337Z,55.40
2018-07-14T07:40:14.411Z,54.61
2018-07-14T07:42:42.525Z,54.07
2018-07-14T07:45:10.578Z,54.70
2018-07-14T07:47:38.674Z,53.62
2018-07-14T07:50:06.733Z,53.83
2018-07-14T07:52:34.868Z,51.98
2018-07-14T07:55:02.950Z,53.38
2018-07-14T07:57:31.042Z,52.81
2018-07-14T07:59:59.138Z,52.38
2018-07-14T08:02:27.211Z,52.82
2018-07-14T08:04:55.285Z,53.34
2018-07-14T08:07:23.350Z,53.77
2018-07-14T08:09:51.496Z,51.47
2018-07-14T08:12:19.617Z,50.65
2018-07-14T08:14:47.727Z,50.64
2018-07-14T08:17:15.904Z,51.45
2018-07-14T08:19:43.973Z,49.59
2018-07-14T08:22:12.060Z,49.79
2018-07-14T08:24:40.158Z,49.58
2018-07-14T08:27:08.241Z,49.37
2018-07-14T08:29:36.314Z,48.98
2018-07-14T08:32:04.503Z,48.54
2018-07-14T08:34:32.572Z,48.54
2018-07-14T08:37:00.644Z,48.19
2018-07-14T08:39:28.738Z,46.84
2018-07-14T08:41:56.791Z,46.82
2018-07-14T08:44:24.855Z,47.79
2018-07-14T08:46:52.910Z,46.42
2018-07-14T08:49:20.991Z,47.01
2018-07-14T08:51:49.053Z,48.11
2018-07-14T08:54:17.196Z,48.06
2018-07-14T08:56:45.270Z,48.27
2018-07-14T08:59:13.575Z,48.19
2018-07-14T09:01:41.652Z,47.91
2018-07-14T09:04:09.737Z,47.42
2018-07-14T09:06:37.815Z,47.89
2018-07-14T09:09:06.841Z,46.85
2018-07-14T09:11:34.934Z,46.82
2018-07-14T09:14:03.005Z,45.04
2018-07-14T09:16:31.148Z,45.87
2018-07-14T09:18:59.152Z,44.20
2018-07-14T09:21:27.225Z,43.72
2018-07-14T09:23:55.307Z,44.18
2018-07-14T09:26:23.361Z,43.26
2018-07-14T09:28:51.444Z,43.85
2018-07-14T09:31:19.512Z,43.48
2018-07-14T09:33:47.627Z,43.29
2018-07-14T09:36:15.687Z,41.71
2018-07-14T09:38:43.788Z,42.60
2018-07-14T09:41:11.852Z,43.25
2018-07-14T09:43:40.316Z,44.09
2018-07-14T09:46:08.403Z,43.50
2018-07-14T09:48:36.471Z,42.91
2018-07-14T09:51:04.548Z,42.08
2018-07-14T09:53:32.620Z,43.28
2018-07-14T09:56:00.670Z,42.78
2018-07-14T09:58:28.938Z,40.39
2018-07-14T10:01:02.655Z,41.37
2018-07-14T10:03:30.811Z,42.14
2018-07-14T10:05:58.801Z,41.65
2018-07-14T10:08:26.877Z,40.88
2018-07-14T10:10:54.944Z,40.45
2018-07-14T10:13:23.121Z,41.22
2018-07-14T10:15:51.206Z,41.91
2018-07-14T10:18:19.256Z,41.30
2018-07-14T10:20:47.350Z,41.03
2018-07-14T10:23:15.413Z,40.88
2018-07-14T10:25:43.676Z,41.07
2018-07-14T10:28:11.559Z,40.05
2018-07-14T10:30:39.644Z,40.12
2018-07-14T10:33:07.699Z,40.39
2018-07-14T10:35:35.777Z,40.42
2018-07-14T10:38:03.878Z,38.26
2018-07-14T10:40:31.960Z,38.08
2018-07-14T10:43:00.027Z,37.85
2018-07-14T10:45:28.102Z,37.10
2018-07-14T10:47:56.181Z,37.82
2018-07-14T10:50:24.248Z,37.23
2018-07-14T10:52:52.634Z,36.48
2018-07-14T10:55:20.749Z,35.92
2018-07-14T10:57:48.837Z,35.68
2018-07-14T11:00:16.908Z,35.34
2018-07-14T11:02:45.008Z,35.36
2018-07-14T11:05:13.096Z,35.91
2018-07-14T11:07:41.161Z,36.08
2018-07-14T11:10:09.249Z,35.71
2018-07-14T11:12:37.304Z,34.81
2018-07-14T11:15:05.488Z,33.89
2018-07-14T11:17:33.548Z,34.45
2018-07-14T11:20:01.628Z,33.82
2018-07-14T11:22:29.696Z,34.99
2018-07-14T11:24:57.779Z,33.70
2018-07-14T11:27:25.837Z,33.58
2018-07-14T11:29:53.909Z,35.41
2018-07-14T11:32:21.983Z,32.77
2018-07-14T11:34:50.044Z,32.54
2018-07-14T11:37:18.541Z,32.92
2018-07-14T11:39:46.606Z,31.25
2018-07-14T11:42:14.724Z,30.99
2018-07-14T11:44:43.827Z,32.62
2018-07-14T11:47:11.917Z,32.10
2018-07-14T11:49:39.984Z,32.20
2018-07-14T11:52:08.135Z,32.45
2018-07-14T11:54:36.204Z,33.43
2018-07-14T11:57:04.309Z,32.74
2018-07-14T11:59:32.363Z,32.73
2018-07-14T12:02:00.480Z,32.53
2018-07-14T12:04:28.509Z,32.73
2018-07-14T12:06:56.587Z,32.54
2018-07-14T12:09:24.665Z,34.21
2018-07-14T12:11:52.712Z,32.62
2018-07-14T12:14:20.785Z,33.06
2018-07-14T12:16:48.831Z,32.24
2018-07-14T12:19:16.913Z,32.77
2018-07-14T12:21:44.989Z,31.97
2018-07-14T12:24:15.798Z,32.52
2018-07-14T12:26:43.936Z,32.06
2018-07-14T12:29:11.955Z,31.50
2018-07-14T12:31:40.046Z,30.15
2018-07-14T12:34:08.106Z,31.53
2018-07-14T12:36:36.210Z,31.51
2018-07-14T12:39:04.825Z,31.59
2018-07-14T12:41:32.964Z,31.45
2018-07-14T12:44:01.032Z,30.38
2018-07-14T12:46:29.124Z,30.96
2018-07-14T12:48:57.211Z,30.84
2018-07-14T12:51:25.286Z,29.82
2018-07-14T12:53:53.377Z,30.64
2018-07-14T12:56:21.483Z,29.81
2018-07-14T12:58:49.708Z,29.17
2018-07-14T13:01:17.775Z,28.31
2018-07-14T13:03:46.674Z,27.95
2018-07-14T13:06:14.748Z,27.95
2018-07-14T13:08:42.835Z,29.13
2018-07-14T13:11:10.884Z,28.57
2018-07-14T13:13:38.942Z,28.76
2018-07-14T13:16:06.999Z,28.22
2018-07-14T13:18:35.224Z,29.63
2018-07-14T13:21:03.303Z,30.13
2018-07-14T13:23:31.499Z,30.43
2018-07-14T13:25:59.569Z,30.52
2018-07-14T13:28:27.664Z,31.36
2018-07-14T13:31:02.153Z,30.49
2018-07-14T13:33:30.236Z,31.08
2018-07-14T13:35:58.314Z,30.16
2018-07-14T13:38:26.671Z,29.17
2018-07-14T13:40:54.743Z,29.60
2018-07-14T13:43:22.825Z,28.36
2018-07-14T13:45:50.891Z,27.73
2018-07-14T13:48:18.963Z,29.16
2018-07-14T13:50:47.042Z,28.22
2018-07-14T13:53:15.121Z,30.35
2018-07-14T13:55:43.198Z,30.37
2018-07-14T13:58:11.318Z,30.08
2018-07-14T14:00:39.412Z,30.70
2018-07-14T14:03:07.487Z,30.64
2018-07-14T14:05:35.543Z,30.32
2018-07-14T14:08:03.607Z,30.48
2018-07-14T14:10:31.725Z,29.83
2018-07-14T14:12:59.799Z,30.48
2018-07-14T14:15:28.144Z,30.35
2018-07-14T14:17:56.208Z,30.64
2018-07-14T14:20:24.301Z,31.54
2018-07-14T14:22:52.376Z,32.09
2018-07-14T14:25:20.455Z,31.91
2018-07-14T14:27:49.508Z,32.51
2018-07-14T14:30:17.583Z,32.42
2018-07-14T14:32:45.684Z,32.44
2018-07-14T14:35:13.805Z,32.71
2018-07-14T14:37:41.884Z,32.55
2018-07-14T14:40:10.055Z,32.49
2018-07-14T14:42:38.136Z,32.85
2018-07-14T14:45:06.644Z,32.92
2018-07-14T14:47:34.713Z,33.86
2018-07-14T14:50:02.788Z,32.47
2018-07-14T14:52:30.856Z,32.77
2018-07-14T14:54:58.919Z,33.52
2018-07-14T14:57:27.092Z,33.16
2018-07-14T14:59:55.148Z,31.71
2018-07-14T15:02:23.201Z,31.90
2018-07-14T15:04:51.392Z,30.97
2018-07-14T15:07:19.419Z,32.19
2018-07-14T15:09:47.536Z,31.76
2018-07-14T15:12:15.612Z,32.18
2018-07-14T15:14:43.749Z,31.83
2018-07-14T15:17:11.816Z,30.61
2018-07-14T15:19:39.903Z,31.84
2018-07-14T15:22:07.981Z,31.76
2018-07-14T15:24:36.048Z,31.53
2018-07-14T15:29:38.645Z,31.27
2018-07-14T15:32:06.717Z,30.16
2018-07-14T15:34:34.789Z,30.34
2018-07-14T15:37:03.024Z,31.34
2018-07-14T15:39:31.084Z,31.53
2018-07-14T15:41:59.172Z,31.11
2018-07-14T15:44:27.269Z,30.21
2018-07-14T15:46:55.349Z,30.10
2018-07-14T15:49:23.495Z,29.50
2018-07-14T15:51:51.653Z,30.23
2018-07-14T15:54:19.715Z,30.14
2018-07-14T15:56:47.837Z,30.58
2018-07-14T15:59:15.915Z,30.74
2018-07-14T16:01:44.009Z,30.18
2018-07-14T16:04:12.076Z,30.83
2018-07-14T16:06:40.132Z,31.87
2018-07-14T16:09:08.477Z,31.89
2018-07-14T16:11:36.604Z,33.27
2018-07-14T16:14:04.682Z,30.72
2018-07-14T16:16:32.789Z,30.82
2018-07-14T16:19:01.017Z,31.13
2018-07-14T16:21:29.068Z,30.49
2018-07-14T16:23:57.145Z,31.20
2018-07-14T16:26:25.230Z,31.11
2018-07-14T16:28:54.228Z,30.49
2018-07-14T16:31:22.304Z,29.91
2018-07-14T16:33:50.375Z,29.69
2018-07-14T16:36:18.458Z,29.96
2018-07-14T16:38:46.524Z,30.50
2018-07-14T16:41:14.602Z,31.84
2018-07-14T16:43:42.780Z,30.24
2018-07-14T16:46:10.761Z,28.50
2018-07-14T16:48:38.856Z,27.18
2018-07-14T16:51:07.031Z,28.58
2018-07-14T16:53:35.101Z,30.80
2018-07-14T16:56:03.194Z,28.69
2018-07-14T16:58:31.290Z,29.64
2018-07-14T17:00:59.348Z,29.70
2018-07-14T17:03:27.412Z,29.47
2018-07-14T17:05:55.575Z,29.33
2018-07-14T17:08:23.651Z,31.07
2018-07-14T17:10:51.733Z,30.61
2018-07-14T17:13:19.886Z,31.31
2018-07-14T17:15:47.956Z,28.17
2018-07-14T17:18:16.017Z,27.88
2018-07-14T17:20:44.222Z,28.69
2018-07-14T17:23:12.223Z,27.96
2018-07-14T17:25:40.292Z,28.84
2018-07-14T17:28:08.372Z,28.40
2018-07-14T17:30:36.444Z,27.90
2018-07-14T17:33:04.517Z,29.52
2018-07-14T17:35:32.660Z,28.18
2018-07-14T17:38:00.697Z,29.41
2018-07-14T17:40:28.757Z,27.57
2018-07-14T17:42:57.181Z,27.97
2018-07-14T17:45:25.256Z,29.73
2018-07-14T17:47:53.320Z,29.41
2018-07-14T17:50:21.388Z,29.32
2018-07-14T17:52:49.464Z,31.14
2018-07-14T17:55:17.536Z,30.48
2018-07-14T17:57:45.636Z,29.09
2018-07-14T18:00:13.692Z,29.53
2018-07-14T18:02:41.777Z,29.00
2018-07-14T18:05:09.899Z,29.94
2018-07-14T18:07:37.926Z,29.13
2018-07-14T18:10:06.269Z,28.63
2018-07-14T18:12:34.376Z,29.40
2018-07-14T18:17:37.301Z,29.63
2018-07-14T18:20:05.728Z,29.21
2018-07-14T18:25:08.255Z,29.52
2018-07-14T18:27:36.394Z,30.83
2018-07-14T18:30:04.576Z,31.01
